Aviation Digital Data Service (ADDS)

Output produced by METARs form (0704 UTC 19 February 2019)
found at http://www.aviationweather.gov/metar/data/
 
Forecast for: UKOO (ODESSA/TSENTRALN, UA)
Text: TAF UKOO 190505Z 1906/2006 15006G12MPS 6000 BKN007 SCT020CB TX06/1911Z TN01/1906Z
Forecast period: 0600 UTC 19 February 2019 to 0600 UTC 20 February 2019
Forecast type: FROM: standard forecast or significant change
Winds: from the SSE (150 degrees) at 14 MPH (12 knots; 6.2 m/s)
gusting to 26 MPH (23 knots; 11.8 m/s)
Visibility: 4 miles (6 km)
Ceiling: 700 feet AGL
Clouds: broken clouds at 700 feet AGL
scattered clouds at 2000 feet AGL
Weather: no significant weather forecast for this period
Text: PROB40
Forecast period: 1800 UTC 19 February 2019 to 0600 UTC 20 February 2019
Forecast type: TEMPORARY: The following changes expected for less than half the time period
Visibility: 0.19 miles (0.31 km)
Ceiling: indefinite ceiling with vertical visibility of 200 feet AGL
Clouds: obscured sky
Weather: FG  (fog)